Bristol, VA (24203)

10:39 AM EDT on October 25, 2014 (GMT -0400)
Island Road | Change Station
CLOSE
Current Station
Personal Weather Station
Location: Bristol, VA
Elevation: 1844 ft
Nearby Weather Stations

Elev 1844 ft 36.63 °N, 82.17 °W | Updated 11 minutes ago

Clear
Clear
49.5 °F
Feels Like 49 °F
N
3.6
Wind Variable Wind from West
Gusts 6.3 mph

Today
High -- | Low -- °F
--% Chance of Precip.
Yesterday
High -- | Low -- °F
Precip. -- in
7:45 AM 6:39 PM
Waxing Crescent, 3% visible
Pressure 30.11 in
Visibility 10.0 miles
Clouds Clear
Windchill 49 °F
Dew Point 41 °F
Humidity 73%
Rainfall 0.00 in
Snow Depth Not available.
UV 2 out of 12
Pollen .90 out of 12
Air Quality Not available.
Flu Activity Sporadic
METAR KVJI 251415Z AUTO 28003KT 10SM CLR 11/07 A3011 RMK AO2 T01070068

More Conditions Fewer Conditions

Pressure 30.11 in
Visibility 10.0 miles
Clouds Clear
Windchill 49 °F
Dew Point 41 °F
Humidity 73%
Rainfall 0.00 in
Snow Depth Not available.
UV 2 out of 12
Pollen .90 out of 12
Air Quality Not available.
Flu Activity Sporadic
METAR KVJI 251415Z AUTO 28003KT 10SM CLR 11/07 A3011 RMK AO2 T01070068

More Conditions Fewer Conditions

10-Day Weather Forecast

Almanac

Astronomy

Oct. 25, 2014 Rise Set
Actual Time 7:45 AM EDT 6:39 PM EDT
Civil Twilight 7:18 AM EDT 7:06 PM EDT
Nautical Twilight 6:48 AM EDT 7:36 PM EDT
Astronomical Twilight 6:18 AM EDT 8:06 PM EDT
Moon 9:20 AM EDT 8:04 PM EDT
Length of Visible Light 11h 47m
Length of Day
10h 54m
Tomorrow will be 2m 8s shorter.
Waxing Crescent, 3% of the Moon is Illuminated
Today
Waxing Crescent
Oct 30
First Quarter
Nov 6
Full
Nov 14
Last Quarter
Nov 22
New

Today's Extremes

State Highs State Lows

Community

WunderPhotos

Upload Photos

1,764,852 photos uploaded!

Nearby

Snow Depth

Station Depth Elevation
No new snow has been reported.

Earthquake Activity

City Distance Mag. Time & Date
No recent earthquake activity has been reported nearby.
Minimum magnitude displayed is 2.5.

Coastal Water Temperatures

Place Temperature
No Stations Reporting

Nearby Weather Stations